createdAt,value
2018-09-04T00:00:05.079Z,97775.35
2018-09-04T00:02:32.755Z,97775.10
2018-09-04T00:05:00.455Z,97774.00
2018-09-04T00:07:28.056Z,97775.27
2018-09-04T00:09:55.765Z,97772.12
2018-09-04T00:12:23.398Z,97765.13
2018-09-04T00:14:51.046Z,97763.34
2018-09-04T00:17:18.729Z,97766.41
2018-09-04T00:19:46.331Z,97768.19
2018-09-04T00:22:13.992Z,97764.80
2018-09-04T00:24:41.629Z,97763.05
2018-09-04T00:27:09.242Z,97765.72
2018-09-04T00:29:36.807Z,97757.48
2018-09-04T00:32:04.471Z,97753.80
2018-09-04T00:34:32.188Z,97757.11
2018-09-04T00:36:59.719Z,97749.12
2018-09-04T00:39:27.369Z,97752.27
2018-09-04T00:41:54.973Z,97750.63
2018-09-04T00:44:22.560Z,97743.83
2018-09-04T00:46:50.231Z,97749.18
2018-09-04T00:49:18.010Z,97749.47
2018-09-04T00:51:45.621Z,97749.86
2018-09-04T00:54:13.282Z,97751.66
2018-09-04T00:56:40.928Z,97750.91
2018-09-04T00:59:08.750Z,97752.17
2018-09-04T01:01:36.487Z,97750.27
2018-09-04T01:04:04.106Z,97752.81
2018-09-04T01:06:31.871Z,97746.70
2018-09-04T01:08:59.506Z,97752.30
2018-09-04T01:11:27.174Z,97749.25
2018-09-04T01:13:54.801Z,97744.70
2018-09-04T01:16:22.508Z,97750.66
2018-09-04T01:18:50.118Z,97755.39
2018-09-04T01:21:17.763Z,97764.65
2018-09-04T01:23:45.508Z,97761.34
2018-09-04T01:26:13.427Z,97752.43
2018-09-04T01:28:41.115Z,97761.05
2018-09-04T01:31:08.778Z,97759.23
2018-09-04T01:33:36.402Z,97758.72
2018-09-04T01:36:04.157Z,97762.92
2018-09-04T01:38:31.821Z,97769.11
2018-09-04T01:40:59.447Z,97769.53
2018-09-04T01:43:27.054Z,97774.22
2018-09-04T01:45:54.708Z,97774.19
2018-09-04T01:48:22.322Z,97772.66
2018-09-04T01:50:49.924Z,97776.19
2018-09-04T01:53:17.608Z,97771.52
2018-09-04T01:55:45.241Z,97776.09
2018-09-04T01:58:12.887Z,97775.68
2018-09-04T02:00:40.567Z,97776.86
2018-09-04T02:03:08.211Z,97783.70
2018-09-04T02:05:35.844Z,97781.79
2018-09-04T02:08:03.556Z,97782.23
2018-09-04T02:10:31.195Z,97780.84
2018-09-04T02:12:58.872Z,97784.48
2018-09-04T02:15:26.734Z,97786.94
2018-09-04T02:17:54.493Z,97789.20
2018-09-04T02:20:22.155Z,97787.95
2018-09-04T02:22:49.948Z,97789.77
2018-09-04T02:25:17.556Z,97792.09
2018-09-04T02:27:45.186Z,97792.88
2018-09-04T02:30:12.848Z,97787.77
2018-09-04T02:32:40.470Z,97794.63
2018-09-04T02:35:08.135Z,97789.77
2018-09-04T02:37:35.814Z,97796.26
2018-09-04T02:40:03.544Z,97789.73
2018-09-04T02:42:31.189Z,97787.42
2018-09-04T02:44:58.820Z,97788.18
2018-09-04T02:47:26.411Z,97791.11
2018-09-04T02:49:54.016Z,97782.42
2018-09-04T02:52:21.721Z,97789.09
2018-09-04T02:54:49.326Z,97790.87
2018-09-04T02:57:16.935Z,97790.36
2018-09-04T02:59:44.595Z,97792.23
2018-09-04T03:02:12.298Z,97789.83
2018-09-04T03:04:39.964Z,97791.60
2018-09-04T03:07:07.613Z,97792.75
2018-09-04T03:09:35.240Z,97786.84
2018-09-04T03:12:02.862Z,97789.67
2018-09-04T03:14:30.546Z,97789.98
2018-09-04T03:16:58.233Z,97781.46
2018-09-04T03:19:25.871Z,97793.49
2018-09-04T03:21:53.490Z,97787.55
2018-09-04T03:24:21.124Z,97789.05
2018-09-04T03:26:48.756Z,97786.75
2018-09-04T03:29:16.398Z,97781.27
2018-09-04T03:31:44.008Z,97777.64
2018-09-04T03:34:11.627Z,97780.44
2018-09-04T03:36:39.332Z,97776.59
2018-09-04T03:39:08.314Z,97780.32
2018-09-04T03:41:35.975Z,97782.06
2018-09-04T03:44:03.685Z,97788.80
2018-09-04T03:46:31.297Z,97781.33
2018-09-04T03:48:58.943Z,97787.02
2018-09-04T03:51:26.575Z,97785.16
2018-09-04T03:53:54.171Z,97780.19
2018-09-04T03:56:21.769Z,97773.95
2018-09-04T03:58:49.441Z,97784.45
2018-09-04T04:01:17.099Z,97784.14
2018-09-04T04:03:44.696Z,97788.05
2018-09-04T04:06:12.354Z,97783.82
2018-09-04T04:08:39.978Z,97787.51
2018-09-04T04:11:07.623Z,97791.48
2018-09-04T04:13:35.288Z,97788.56
2018-09-04T04:16:02.937Z,97789.05
2018-09-04T04:18:30.555Z,97785.79
2018-09-04T04:20:59.100Z,97795.46
2018-09-04T04:23:27.752Z,97797.11
2018-09-04T04:25:56.225Z,97800.49
2018-09-04T04:28:24.325Z,97800.97
2018-09-04T04:30:51.956Z,97808.95
2018-09-04T04:33:19.911Z,97801.20
2018-09-04T04:35:47.669Z,97801.28
2018-09-04T04:38:15.305Z,97806.72
2018-09-04T04:40:42.959Z,97803.28
2018-09-04T04:43:10.816Z,97814.32
2018-09-04T04:45:38.735Z,97813.69
2018-09-04T04:48:06.422Z,97816.14
2018-09-04T04:50:34.054Z,97819.58
2018-09-04T04:53:01.711Z,97815.97
2018-09-04T04:55:29.394Z,97806.00
2018-09-04T04:57:57.157Z,97815.93
2018-09-04T05:00:24.870Z,97816.69
2018-09-04T05:02:52.488Z,97811.25
2018-09-04T05:05:20.165Z,97819.45
2018-09-04T05:07:47.845Z,97819.33
2018-09-04T05:10:15.476Z,97813.59
2018-09-04T05:12:43.218Z,97817.02
2018-09-04T05:15:10.869Z,97825.30
2018-09-04T05:17:38.482Z,97822.67
2018-09-04T05:20:07.329Z,97825.12
2018-09-04T05:22:35.043Z,97833.41
2018-09-04T05:25:02.684Z,97836.58
2018-09-04T05:27:30.333Z,97837.38
2018-09-04T05:29:57.976Z,97828.66
2018-09-04T05:32:42.865Z,97833.49
2018-09-04T05:35:12.208Z,97835.02
2018-09-04T05:37:40.498Z,97835.27
2018-09-04T05:40:08.216Z,97836.86
2018-09-04T05:42:39.181Z,97843.18
2018-09-04T05:45:07.430Z,97843.91
2018-09-04T05:47:36.895Z,97846.70
2018-09-04T05:50:05.837Z,97842.28
2018-09-04T05:52:33.484Z,97841.78
2018-09-04T05:55:01.125Z,97851.16
2018-09-04T05:57:28.840Z,97854.97
2018-09-04T05:59:56.643Z,97849.31
2018-09-04T06:02:24.368Z,97851.77
2018-09-04T06:04:52.011Z,97853.52
2018-09-04T06:07:19.669Z,97857.97
2018-09-04T06:09:47.307Z,97857.14
2018-09-04T06:12:15.991Z,97849.88
2018-09-04T06:14:43.659Z,97852.27
2018-09-04T06:17:11.328Z,97849.59
2018-09-04T06:19:38.964Z,97842.71
2018-09-04T06:22:06.644Z,97837.45
2018-09-04T06:24:34.291Z,97839.39
2018-09-04T06:27:02.013Z,97842.28
2018-09-04T06:29:29.794Z,97837.62
2018-09-04T06:31:57.479Z,97843.28
2018-09-04T06:34:25.169Z,97842.35
2018-09-04T06:36:52.986Z,97842.97
2018-09-04T06:39:21.109Z,97847.89
2018-09-04T06:41:48.842Z,97848.28
2018-09-04T06:44:16.527Z,97852.66
2018-09-04T06:46:44.169Z,97852.27
2018-09-04T06:49:11.834Z,97856.24
2018-09-04T06:51:39.556Z,97860.23
2018-09-04T06:54:07.205Z,97861.28
2018-09-04T06:56:34.907Z,97858.42
2018-09-04T06:59:02.593Z,97855.74
2018-09-04T07:01:30.267Z,97857.39
2018-09-04T07:03:57.902Z,97856.81
2018-09-04T07:06:25.605Z,97851.42
2018-09-04T07:08:53.259Z,97855.38
2018-09-04T07:11:20.885Z,97854.13
2018-09-04T07:13:48.596Z,97858.58
2018-09-04T07:16:16.308Z,97862.33
2018-09-04T07:18:43.984Z,97859.02
2018-09-04T07:21:11.618Z,97873.03
2018-09-04T07:23:39.300Z,97867.23
2018-09-04T07:26:06.982Z,97874.82
2018-09-04T07:28:34.668Z,97871.63
2018-09-04T07:31:02.395Z,97871.98
2018-09-04T07:33:30.167Z,97870.73
2018-09-04T07:35:57.955Z,97872.10
2018-09-04T07:38:25.644Z,97872.27
2018-09-04T07:40:53.285Z,97870.55
2018-09-04T07:43:20.984Z,97871.87
2018-09-04T07:45:48.618Z,97874.32
2018-09-04T07:48:16.273Z,97874.53
2018-09-04T07:50:43.965Z,97871.50
2018-09-04T07:53:11.700Z,97869.45
2018-09-04T07:55:39.350Z,97872.12
2018-09-04T07:58:07.031Z,97874.00
2018-09-04T08:00:34.727Z,97874.91
2018-09-04T08:03:02.377Z,97876.98
2018-09-04T08:05:30.081Z,97868.97
2018-09-04T08:07:57.851Z,97877.24
2018-09-04T08:10:25.547Z,97880.69
2018-09-04T08:12:53.264Z,97886.98
2018-09-04T08:15:21.050Z,97877.91
2018-09-04T08:17:48.694Z,97883.27
2018-09-04T08:20:16.421Z,97878.55
2018-09-04T08:22:44.110Z,97878.69
2018-09-04T08:25:11.740Z,97878.62
2018-09-04T08:27:39.437Z,97873.98
2018-09-04T08:30:07.216Z,97875.28
2018-09-04T08:32:34.856Z,97877.80
2018-09-04T08:35:02.555Z,97876.40
2018-09-04T08:37:30.226Z,97870.14
2018-09-04T08:39:57.899Z,97864.80
2018-09-04T08:42:25.560Z,97861.95
2018-09-04T08:44:53.260Z,97856.98
2018-09-04T08:47:21.334Z,97860.41
2018-09-04T08:49:49.102Z,97857.45
2018-09-04T08:52:16.757Z,97854.86
2018-09-04T08:54:44.495Z,97857.39
2018-09-04T08:57:12.260Z,97846.57
2018-09-04T08:59:39.920Z,97845.84
2018-09-04T09:02:07.539Z,97847.39
2018-09-04T09:04:35.290Z,97849.23
2018-09-04T09:07:02.946Z,97842.26
2018-09-04T09:09:30.580Z,97840.50
2018-09-04T09:11:58.244Z,97851.09
2018-09-04T09:14:25.919Z,97845.61
2018-09-04T09:16:53.558Z,97849.20
2018-09-04T09:19:21.265Z,97849.42
2018-09-04T09:21:48.974Z,97842.99
2018-09-04T09:24:16.607Z,97843.83
2018-09-04T09:26:44.298Z,97844.80
2018-09-04T09:29:11.971Z,97839.99
2018-09-04T09:31:39.662Z,97842.47
2018-09-04T09:34:07.342Z,97841.58
2018-09-04T09:36:35.040Z,97834.23
2018-09-04T09:39:03.011Z,97833.53
2018-09-04T09:41:30.731Z,97834.67
2018-09-04T09:43:58.498Z,97830.28
2018-09-04T09:46:26.136Z,97827.99
2018-09-04T09:48:53.813Z,97833.17
2018-09-04T09:51:21.468Z,97835.05
2018-09-04T09:53:49.112Z,97829.44
2018-09-04T09:56:16.855Z,97820.36
2018-09-04T09:58:44.518Z,97819.84
2018-09-04T10:01:17.708Z,97816.76
2018-09-04T10:03:50.918Z,97809.63
2018-09-04T10:06:19.496Z,97819.47
2018-09-04T10:08:47.196Z,97817.92
2018-09-04T10:11:14.857Z,97813.73
2018-09-04T10:13:42.586Z,97813.48
2018-09-04T10:16:10.254Z,97804.52
2018-09-04T10:18:37.928Z,97810.50
2018-09-04T10:21:05.819Z,97809.30
2018-09-04T10:23:33.628Z,97811.23
2018-09-04T10:26:01.377Z,97808.11
2018-09-04T10:28:29.136Z,97807.17
2018-09-04T10:30:56.780Z,97807.27
2018-09-04T10:33:24.409Z,97802.03
2018-09-04T10:35:52.113Z,97795.57
2018-09-04T10:38:23.519Z,97793.84
2018-09-04T10:40:52.916Z,97786.88
2018-09-04T10:43:20.659Z,97791.80
2018-09-04T10:45:53.940Z,97796.28
2018-09-04T10:48:25.547Z,97794.91
2018-09-04T10:50:53.441Z,97789.35
2018-09-04T10:53:21.099Z,97793.67
2018-09-04T10:55:48.875Z,97792.67
2018-09-04T10:58:16.512Z,97784.84
2018-09-04T11:00:44.166Z,97787.94
2018-09-04T11:03:11.875Z,97784.77
2018-09-04T11:05:39.649Z,97781.78
2018-09-04T11:08:07.370Z,97785.44
2018-09-04T11:10:35.100Z,97778.59
2018-09-04T11:13:02.834Z,97785.94
2018-09-04T11:15:30.516Z,97778.08
2018-09-04T11:17:58.285Z,97772.70
2018-09-04T11:20:26.035Z,97772.40
2018-09-04T11:22:53.863Z,97771.89
2018-09-04T11:25:21.589Z,97767.87
2018-09-04T11:27:49.337Z,97775.21
2018-09-04T11:30:17.025Z,97771.27
2018-09-04T11:32:44.672Z,97773.26
2018-09-04T11:35:12.489Z,97775.67
2018-09-04T11:37:40.256Z,97782.49
2018-09-04T11:40:08.759Z,97782.34
2018-09-04T11:42:36.675Z,97776.00
2018-09-04T11:45:05.230Z,97779.67
2018-09-04T11:47:32.929Z,97774.61
2018-09-04T11:50:00.632Z,97775.36
2018-09-04T11:52:28.431Z,97773.45
2018-09-04T11:54:56.043Z,97780.23
2018-09-04T11:57:23.778Z,97783.31
2018-09-04T11:59:51.556Z,97774.51
2018-09-04T12:02:22.823Z,97772.84
2018-09-04T12:04:50.492Z,97771.64
2018-09-04T12:07:18.201Z,97759.45
2018-09-04T12:09:45.855Z,97763.59
2018-09-04T12:12:19.177Z,97764.68
2018-09-04T12:14:46.802Z,97769.53
2018-09-04T12:17:14.556Z,97762.58
2018-09-04T12:20:52.716Z,97771.20
2018-09-04T12:23:20.315Z,97766.34
2018-09-04T12:25:49.468Z,97760.73
2018-09-04T12:28:17.144Z,97758.39
2018-09-04T12:30:44.828Z,97751.64
2018-09-04T12:33:12.461Z,97751.95
2018-09-04T12:35:40.137Z,97744.55
2018-09-04T12:38:11.381Z,97755.66
2018-09-04T12:40:39.126Z,97751.87
2018-09-04T12:43:06.782Z,97754.55
2018-09-04T12:45:39.964Z,97754.70
2018-09-04T12:48:07.749Z,97752.36
2018-09-04T12:50:35.924Z,97745.93
2018-09-04T12:53:03.598Z,97743.83
2018-09-04T12:55:31.323Z,97754.39
2018-09-04T12:57:58.968Z,97755.41
2018-09-04T13:00:26.591Z,97758.44
2018-09-04T13:02:54.262Z,97750.46
2018-09-04T13:05:21.871Z,97754.44
2018-09-04T13:07:49.491Z,97753.66
2018-09-04T13:10:17.132Z,97745.56
2018-09-04T13:12:44.741Z,97749.30
2018-09-04T13:15:12.881Z,97738.62
2018-09-04T13:17:40.570Z,97739.28
2018-09-04T13:20:08.199Z,97731.70
2018-09-04T13:22:35.813Z,97739.63
2018-09-04T13:25:03.558Z,97738.80
2018-09-04T13:27:31.297Z,97732.27
2018-09-04T13:29:58.960Z,97736.45
2018-09-04T13:32:26.618Z,97731.92
2018-09-04T13:34:54.233Z,97724.52
2018-09-04T13:37:22.912Z,97728.83
2018-09-04T13:39:55.525Z,97726.17
2018-09-04T13:42:23.148Z,97728.06
2018-09-04T13:44:53.683Z,97727.98
2018-09-04T13:47:22.169Z,97716.91
2018-09-04T13:49:49.815Z,97723.99
2018-09-04T13:52:17.441Z,97717.14
2018-09-04T13:54:45.091Z,97716.68
2018-09-04T13:57:12.710Z,97714.42
2018-09-04T13:59:40.329Z,97714.58
2018-09-04T14:02:08.049Z,97717.72
2018-09-04T14:04:35.646Z,97715.83
2018-09-04T14:07:03.324Z,97716.64
2018-09-04T14:09:31.011Z,97714.89
2018-09-04T14:11:58.693Z,97715.72
2018-09-04T14:14:26.317Z,97717.38
2018-09-04T14:16:54.094Z,97711.61
2018-09-04T14:19:21.647Z,97715.45
2018-09-04T14:21:49.613Z,97726.24
2018-09-04T14:24:17.276Z,97719.69
2018-09-04T14:26:44.878Z,97719.30
2018-09-04T14:29:53.155Z,97722.47
2018-09-04T14:31:40.180Z,97710.50
2018-09-04T14:34:07.818Z,97715.47
2018-09-04T14:36:36.088Z,97714.75
2018-09-04T14:39:04.280Z,97713.90
2018-09-04T14:41:32.038Z,97718.20
2018-09-04T14:43:59.656Z,97715.17
2018-09-04T14:46:27.329Z,97714.89
2018-09-04T14:48:55.029Z,97717.19
2018-09-04T14:51:22.652Z,97719.05
2018-09-04T14:53:50.385Z,97716.45
2018-09-04T14:56:18.021Z,97710.65
2018-09-04T14:58:45.640Z,97716.17
2018-09-04T15:01:13.282Z,97713.31
2018-09-04T15:03:40.904Z,97715.35
2018-09-04T15:06:08.544Z,97723.64
2018-09-04T15:08:36.218Z,97721.17
2018-09-04T15:11:03.845Z,97718.37
2018-09-04T15:13:31.490Z,97716.70
2018-09-04T15:15:59.138Z,97715.75
2018-09-04T15:18:26.773Z,97717.92
2018-09-04T15:20:54.424Z,97713.63
2018-09-04T15:23:22.076Z,97714.01
2018-09-04T15:25:49.688Z,97722.03
2018-09-04T15:28:17.310Z,97722.03
2018-09-04T15:30:44.981Z,97719.53
2018-09-04T15:33:12.586Z,97720.75
2018-09-04T15:35:40.199Z,97727.86
2018-09-04T15:38:07.848Z,97726.70
2018-09-04T15:40:35.473Z,97724.73
2018-09-04T15:43:03.105Z,97725.91
2018-09-04T15:45:30.921Z,97726.72
2018-09-04T15:47:58.532Z,97721.47
2018-09-04T15:50:26.148Z,97716.71
2018-09-04T15:52:53.793Z,97712.86
2018-09-04T15:55:21.372Z,97716.54
2018-09-04T15:57:49.021Z,97715.03
2018-09-04T16:00:16.740Z,97722.41
2018-09-04T16:02:44.358Z,97719.29
2018-09-04T16:05:11.976Z,97719.56
2018-09-04T16:07:39.637Z,97719.38
2018-09-04T16:10:07.443Z,97730.55
2018-09-04T16:12:34.959Z,97719.70
2018-09-04T16:15:02.647Z,97721.89
2018-09-04T16:17:30.400Z,97716.64
2018-09-04T16:19:58.016Z,97719.63
2018-09-04T16:22:25.796Z,97722.64
2018-09-04T16:24:53.465Z,97717.03
2018-09-04T16:27:21.107Z,97721.03
2018-09-04T16:29:48.817Z,97731.27
2018-09-04T16:32:16.524Z,97724.20
2018-09-04T16:34:44.192Z,97725.30
2018-09-04T16:37:11.832Z,97727.08
2018-09-04T16:39:39.469Z,97729.37
2018-09-04T16:42:07.092Z,97733.59
2018-09-04T16:44:34.885Z,97736.94
2018-09-04T16:47:02.505Z,97734.80
2018-09-04T16:49:30.122Z,97734.06
2018-09-04T16:51:59.068Z,97740.83
2018-09-04T16:54:27.418Z,97739.56
2018-09-04T16:56:55.063Z,97738.30
2018-09-04T16:59:22.812Z,97744.11
2018-09-04T17:01:50.440Z,97741.97
2018-09-04T17:04:18.064Z,97745.76
2018-09-04T17:06:46.167Z,97749.48
2018-09-04T17:09:13.781Z,97754.95
2018-09-04T17:11:41.417Z,97752.17
2018-09-04T17:14:09.100Z,97756.20
2018-09-04T17:16:36.721Z,97756.65
2018-09-04T17:19:04.548Z,97761.44
2018-09-04T17:21:32.216Z,97758.84
2018-09-04T17:23:59.835Z,97764.53
2018-09-04T17:26:27.467Z,97758.16
2018-09-04T17:28:55.142Z,97760.53
2018-09-04T17:31:22.812Z,97757.45
2018-09-04T17:33:50.556Z,97760.20
2018-09-04T17:36:18.229Z,97762.21
2018-09-04T17:38:45.970Z,97770.61
2018-09-04T17:41:13.621Z,97775.91
2018-09-04T17:43:41.305Z,97777.98
2018-09-04T17:46:08.921Z,97777.68
2018-09-04T17:48:36.560Z,97781.26
2018-09-04T17:51:04.368Z,97777.49
2018-09-04T17:53:32.289Z,97784.84
2018-09-04T17:55:59.900Z,97783.91
2018-09-04T17:58:27.602Z,97785.41
2018-09-04T18:00:55.274Z,97789.72
2018-09-04T18:03:23.029Z,97785.10
2018-09-04T18:05:50.732Z,97792.35
2018-09-04T18:08:18.329Z,97791.06
2018-09-04T18:10:46.006Z,97795.06
2018-09-04T18:13:13.668Z,97798.53
2018-09-04T18:15:41.309Z,97798.30
2018-09-04T18:18:08.913Z,97804.77
2018-09-04T18:20:36.577Z,97805.30
2018-09-04T18:23:04.248Z,97813.47
2018-09-04T18:25:31.875Z,97817.22
2018-09-04T18:27:59.568Z,97814.39
2018-09-04T18:30:28.851Z,97817.38
2018-09-04T18:32:56.460Z,97826.32
2018-09-04T18:35:24.117Z,97820.36
2018-09-04T18:37:51.736Z,97819.49
2018-09-04T18:40:19.383Z,97817.80
2018-09-04T18:42:47.040Z,97823.36
2018-09-04T18:45:50.328Z,97827.64
2018-09-04T18:48:18.372Z,97824.21
2018-09-04T18:50:46.026Z,97831.53
2018-09-04T18:53:13.669Z,97835.47
2018-09-04T18:55:41.344Z,97832.44
2018-09-04T18:58:09.671Z,97841.92
2018-09-04T19:00:37.373Z,97840.98
2018-09-04T19:03:05.425Z,97848.08
2018-09-04T19:05:33.252Z,97853.42
2018-09-04T19:08:00.998Z,97850.96
2018-09-04T19:10:28.858Z,97852.27
2018-09-04T19:12:56.512Z,97857.69
2018-09-04T19:15:24.160Z,97860.77
2018-09-04T19:17:51.833Z,97861.66
2018-09-04T19:20:19.567Z,97857.32
2018-09-04T19:22:47.149Z,97859.92
2018-09-04T19:25:14.950Z,97859.73
2018-09-04T19:27:42.582Z,97864.16
2018-09-04T19:30:10.233Z,97865.92
2018-09-04T19:32:37.898Z,97876.30
2018-09-04T19:35:05.511Z,97870.77
2018-09-04T19:37:33.152Z,97869.03
2018-09-04T19:40:00.861Z,97862.12
2018-09-04T19:42:28.487Z,97867.46
2018-09-04T19:44:56.143Z,97869.92
2018-09-04T19:47:23.819Z,97870.50
2018-09-04T19:49:51.566Z,97864.31
2018-09-04T19:52:19.171Z,97872.91
2018-09-04T19:54:46.954Z,97879.41
2018-09-04T19:57:14.581Z,97874.77
2018-09-04T19:59:42.209Z,97872.63
2018-09-04T20:02:09.928Z,97871.64
2018-09-04T20:04:37.591Z,97868.87
2018-09-04T20:07:05.691Z,97876.02
2018-09-04T20:09:33.362Z,97878.30
2018-09-04T20:12:00.990Z,97875.42
2018-09-04T20:14:28.612Z,97876.27
2018-09-04T20:16:56.290Z,97876.08
2018-09-04T20:19:23.947Z,97873.61
2018-09-04T20:21:51.628Z,97878.77
2018-09-04T20:24:19.330Z,97876.94
2018-09-04T20:26:46.981Z,97882.23
2018-09-04T20:29:14.617Z,97877.47
2018-09-04T20:31:42.332Z,97885.28
2018-09-04T20:34:09.966Z,97874.58
2018-09-04T20:36:37.590Z,97876.09
2018-09-04T20:39:06.030Z,97876.73
2018-09-04T20:41:33.753Z,97877.38
2018-09-04T20:44:01.501Z,97886.81
2018-09-04T20:46:29.293Z,97885.51
2018-09-04T20:48:57.023Z,97885.61
2018-09-04T20:51:24.700Z,97888.09
2018-09-04T20:53:52.436Z,97883.73
2018-09-04T20:56:20.048Z,97883.95
2018-09-04T20:58:58.774Z,97896.73
2018-09-04T21:01:37.775Z,97894.66
2018-09-04T21:04:16.712Z,97891.39
2018-09-04T21:06:44.672Z,97890.61
2018-09-04T21:09:28.172Z,97892.75
2018-09-04T21:11:55.835Z,97889.94
2018-09-04T21:14:23.672Z,97894.38
2018-09-04T21:16:52.065Z,97894.34
2018-09-04T21:19:19.659Z,97905.25
2018-09-04T21:21:47.292Z,97904.70
2018-09-04T21:24:15.127Z,97900.04
2018-09-04T21:26:42.732Z,97904.46
2018-09-04T21:29:10.451Z,97904.11
2018-09-04T21:31:38.154Z,97898.69
2018-09-04T21:34:05.879Z,97902.34
2018-09-04T21:36:33.525Z,97909.26
2018-09-04T21:39:01.269Z,97911.63
2018-09-04T21:41:28.935Z,97917.69
2018-09-04T21:43:56.663Z,97917.66
2018-09-04T21:46:24.319Z,97920.23
2018-09-04T21:48:52.027Z,97921.43
2018-09-04T21:51:19.679Z,97923.23
2018-09-04T21:53:47.333Z,97924.77
2018-09-04T21:56:14.986Z,97925.94
2018-09-04T21:58:42.631Z,97930.23
2018-09-04T22:01:10.345Z,97930.78
2018-09-04T22:03:38.027Z,97922.69
2018-09-04T22:06:05.793Z,97925.88
2018-09-04T22:08:33.537Z,97929.95
2018-09-04T22:11:01.187Z,97926.57
2018-09-04T22:13:28.828Z,97928.58
2018-09-04T22:15:56.544Z,97932.22
2018-09-04T22:18:24.263Z,97934.27
2018-09-04T22:20:51.905Z,97934.66
2018-09-04T22:23:19.563Z,97933.69
2018-09-04T22:25:47.182Z,97934.09
2018-09-04T22:28:14.864Z,97939.14
2018-09-04T22:30:42.547Z,97933.71
2018-09-04T22:33:10.201Z,97942.30
2018-09-04T22:35:37.846Z,97943.00
2018-09-04T22:38:05.516Z,97938.33
2018-09-04T22:40:33.143Z,97942.09
2018-09-04T22:43:00.767Z,97947.58
2018-09-04T22:45:28.484Z,97943.25
2018-09-04T22:47:56.899Z,97943.31
2018-09-04T22:50:30.153Z,97948.05
2018-09-04T22:52:57.743Z,97945.94
2018-09-04T22:55:25.383Z,97949.81
2018-09-04T22:57:53.046Z,97951.91
2018-09-04T23:00:20.741Z,97948.64
2018-09-04T23:02:48.410Z,97951.72
2018-09-04T23:05:16.073Z,97953.39
2018-09-04T23:07:43.682Z,97944.60
2018-09-04T23:10:11.327Z,97948.30
2018-09-04T23:12:39.026Z,97952.38
2018-09-04T23:15:06.754Z,97950.86
2018-09-04T23:17:34.403Z,97945.55
2018-09-04T23:20:41.100Z,97949.75
2018-09-04T23:23:08.717Z,97945.08
2018-09-04T23:25:36.444Z,97942.55
2018-09-04T23:28:04.110Z,97942.97
2018-09-04T23:30:31.791Z,97941.27
2018-09-04T23:32:59.440Z,97937.36
2018-09-04T23:35:27.134Z,97930.78
2018-09-04T23:37:54.753Z,97942.77
2018-09-04T23:40:22.433Z,97938.95
2018-09-04T23:42:50.076Z,97941.29
2018-09-04T23:45:17.718Z,97936.73
2018-09-04T23:47:45.495Z,97942.86
2018-09-04T23:50:13.166Z,97945.96
2018-09-04T23:52:41.099Z,97949.92
2018-09-04T23:55:08.721Z,97949.67
2018-09-04T23:57:36.571Z,97939.85
